createdAt,value
2018-03-22T00:00:11.288Z,11.73
2018-03-22T00:02:39.630Z,13.17
2018-03-22T00:05:07.202Z,19.67
2018-03-22T00:07:34.817Z,14.50
2018-03-22T00:10:02.383Z,15.90
2018-03-22T00:12:29.962Z,10.80
2018-03-22T00:14:57.546Z,11.90
2018-03-22T00:17:25.118Z,10.70
2018-03-22T00:19:53.459Z,9.20
2018-03-22T00:22:32.997Z,14.80
2018-03-22T00:25:00.561Z,10.67
2018-03-22T00:27:28.127Z,12.23
2018-03-22T00:29:55.732Z,13.00
2018-03-22T00:32:24.054Z,10.00
2018-03-22T00:34:51.607Z,13.13
2018-03-22T00:37:19.197Z,10.10
2018-03-22T00:39:46.793Z,14.80
2018-03-22T00:42:15.123Z,11.57
2018-03-22T00:44:42.724Z,12.27
2018-03-22T00:47:11.055Z,11.30
2018-03-22T00:49:38.617Z,9.70
2018-03-22T00:52:06.240Z,9.35
2018-03-22T00:54:33.807Z,12.43
2018-03-22T00:57:01.369Z,11.30
2018-03-22T00:59:28.974Z,13.30
2018-03-22T01:01:56.549Z,10.80
2018-03-22T01:04:24.173Z,11.67
2018-03-22T01:06:51.769Z,12.97
2018-03-22T01:09:19.352Z,14.43
2018-03-22T01:11:47.687Z,9.70
2018-03-22T01:14:15.285Z,8.00
2018-03-22T01:16:43.611Z,11.47
2018-03-22T01:19:11.194Z,10.48
2018-03-22T01:24:09.282Z,7.90
2018-03-22T01:26:36.844Z,10.37
2018-03-22T01:29:04.427Z,8.40
2018-03-22T01:31:32.029Z,9.33
2018-03-22T01:33:59.591Z,9.70
2018-03-22T01:36:27.167Z,12.90
2018-03-22T01:38:54.764Z,9.30
2018-03-22T01:41:22.319Z,8.20
2018-03-22T01:43:49.894Z,10.15
2018-03-22T01:46:18.256Z,8.53
2018-03-22T01:48:45.832Z,7.97
2018-03-22T01:51:14.368Z,8.90
2018-03-22T01:53:41.990Z,8.10
2018-03-22T01:56:10.314Z,8.00
2018-03-22T01:58:37.877Z,9.27
2018-03-22T02:01:05.498Z,10.00
2018-03-22T02:03:33.844Z,11.83
2018-03-22T02:06:01.423Z,7.90
2018-03-22T02:08:29.803Z,8.23
2018-03-22T02:10:58.132Z,13.90
2018-03-22T02:13:25.696Z,8.83
2018-03-22T02:15:53.304Z,10.80
2018-03-22T02:18:21.632Z,9.20
2018-03-22T02:20:49.223Z,8.33
2018-03-22T02:23:16.808Z,11.77
2018-03-22T02:25:45.156Z,11.00
2018-03-22T02:28:12.711Z,8.07
2018-03-22T02:30:40.405Z,9.50
2018-03-22T02:33:08.740Z,10.73
2018-03-22T02:35:36.335Z,8.80
2018-03-22T02:38:03.921Z,10.80
2018-03-22T02:40:31.535Z,10.90
2018-03-22T02:42:59.063Z,9.33
2018-03-22T02:45:26.700Z,9.93
2018-03-22T02:47:55.036Z,11.27
2018-03-22T02:50:22.604Z,8.50
2018-03-22T02:52:50.190Z,12.67
2018-03-22T02:55:18.540Z,14.80
2018-03-22T02:57:46.111Z,12.13
2018-03-22T03:00:13.708Z,13.50
2018-03-22T03:02:41.269Z,9.32
2018-03-22T03:05:08.834Z,10.80
2018-03-22T03:07:36.436Z,9.82
2018-03-22T03:10:04.010Z,11.53
2018-03-22T03:12:31.557Z,9.57
2018-03-22T03:14:59.145Z,10.37
2018-03-22T03:17:27.482Z,6.97
2018-03-22T03:19:55.057Z,9.50
2018-03-22T03:22:22.665Z,9.53
2018-03-22T03:24:50.261Z,11.12
2018-03-22T03:27:17.840Z,9.90
2018-03-22T03:29:45.430Z,9.82
2018-03-22T03:32:13.780Z,10.05
2018-03-22T03:34:42.116Z,9.82
2018-03-22T03:37:09.720Z,10.75
2018-03-22T03:39:37.291Z,9.40
2018-03-22T03:42:04.864Z,6.93
2018-03-22T03:44:32.453Z,9.97
2018-03-22T03:47:00.005Z,12.20
2018-03-22T03:49:28.343Z,20.03
2018-03-22T03:51:55.937Z,12.00
2018-03-22T03:54:24.268Z,10.33
2018-03-22T03:56:51.827Z,7.77
2018-03-22T03:59:19.426Z,11.82
2018-03-22T04:01:47.755Z,10.40
2018-03-22T04:04:15.317Z,10.77
2018-03-22T04:06:42.918Z,9.57
2018-03-22T04:09:10.483Z,8.83
2018-03-22T04:11:38.062Z,10.63
2018-03-22T04:14:06.428Z,9.17
2018-03-22T04:16:34.785Z,9.87
2018-03-22T04:19:03.148Z,12.30
2018-03-22T04:21:30.735Z,13.20
2018-03-22T04:23:58.328Z,12.80
2018-03-22T04:26:26.662Z,11.77
2018-03-22T04:28:54.381Z,8.50
2018-03-22T04:31:21.958Z,12.27
2018-03-22T04:33:49.524Z,7.83
2018-03-22T04:36:17.122Z,9.90
2018-03-22T04:38:45.459Z,8.90
2018-03-22T04:41:13.031Z,10.03
2018-03-22T04:43:40.615Z,9.37
2018-03-22T04:46:08.165Z,8.60
2018-03-22T04:48:35.733Z,13.80
2018-03-22T04:51:03.343Z,15.70
2018-03-22T04:53:30.914Z,8.70
2018-03-22T04:55:58.480Z,9.87
2018-03-22T04:58:26.078Z,18.60
2018-03-22T05:00:53.649Z,13.97
2018-03-22T05:03:21.226Z,16.83
2018-03-22T05:05:49.573Z,14.47
2018-03-22T05:08:17.159Z,17.83
2018-03-22T05:10:45.499Z,12.83
2018-03-22T05:13:13.118Z,14.53
2018-03-22T05:15:40.672Z,11.30
2018-03-22T05:18:08.924Z,12.30
2018-03-22T05:20:37.288Z,11.70
2018-03-22T05:23:04.849Z,12.70
2018-03-22T05:25:32.409Z,12.50
2018-03-22T05:28:00.948Z,14.07
2018-03-22T05:30:28.507Z,15.07
2018-03-22T05:32:56.071Z,10.80
2018-03-22T05:35:23.652Z,15.37
2018-03-22T05:37:54.304Z,17.27
2018-03-22T05:40:21.870Z,18.57
2018-03-22T05:42:50.367Z,16.00
2018-03-22T05:45:17.924Z,13.60
2018-03-22T05:47:46.280Z,13.68
2018-03-22T05:50:13.876Z,14.50
2018-03-22T05:52:42.200Z,16.93
2018-03-22T05:55:09.776Z,13.40
2018-03-22T05:57:37.404Z,14.03
2018-03-22T06:00:04.997Z,12.17
2018-03-22T06:02:32.581Z,12.03
2018-03-22T06:05:00.161Z,14.07
2018-03-22T06:07:28.487Z,17.83
2018-03-22T06:09:56.046Z,12.33
2018-03-22T06:12:23.651Z,15.15
2018-03-22T06:14:51.249Z,15.77
2018-03-22T06:17:18.924Z,13.30
2018-03-22T06:19:46.504Z,13.47
2018-03-22T06:22:14.081Z,11.85
2018-03-22T06:24:41.681Z,15.20
2018-03-22T06:27:09.280Z,17.35
2018-03-22T06:29:36.837Z,15.43
2018-03-22T06:32:04.387Z,22.53
2018-03-22T06:34:32.008Z,12.30
2018-03-22T06:37:00.326Z,16.80
2018-03-22T06:39:27.901Z,16.80
2018-03-22T06:41:55.513Z,19.43
2018-03-22T06:44:23.838Z,12.07
2018-03-22T06:46:52.020Z,15.38
2018-03-22T06:49:19.635Z,15.20
2018-03-22T06:51:47.224Z,16.00
2018-03-22T06:54:14.786Z,15.33
2018-03-22T06:56:42.386Z,14.50
2018-03-22T06:59:09.955Z,12.73
2018-03-22T07:01:37.565Z,14.57
2018-03-22T07:04:05.155Z,13.53
2018-03-22T07:06:33.081Z,10.75
2018-03-22T07:09:00.644Z,10.53
2018-03-22T07:11:28.318Z,14.37
2018-03-22T07:13:55.925Z,15.07
2018-03-22T07:16:23.476Z,15.30
2018-03-22T07:18:51.083Z,13.37
2018-03-22T07:21:18.656Z,13.10
2018-03-22T07:23:46.217Z,12.10
2018-03-22T07:26:13.810Z,11.87
2018-03-22T07:28:41.359Z,9.93
2018-03-22T07:31:08.937Z,8.90
2018-03-22T07:33:36.514Z,11.30
2018-03-22T07:36:04.062Z,16.33
2018-03-22T07:38:31.620Z,11.73
2018-03-22T07:40:59.219Z,12.43
2018-03-22T07:43:44.415Z,11.47
2018-03-22T07:46:11.991Z,9.73
2018-03-22T07:48:39.591Z,19.10
2018-03-22T07:51:07.124Z,20.30
2018-03-22T07:53:34.695Z,15.53
2018-03-22T07:56:02.252Z,13.10
2018-03-22T07:58:29.827Z,14.37
2018-03-22T08:00:57.407Z,12.43
2018-03-22T08:03:24.998Z,14.50
2018-03-22T08:05:52.606Z,13.30
2018-03-22T08:08:20.943Z,11.87
2018-03-22T08:10:48.513Z,8.60
2018-03-22T08:13:16.860Z,10.80
2018-03-22T08:15:44.704Z,8.47
2018-03-22T08:18:13.065Z,10.03
2018-03-22T08:20:40.652Z,7.53
2018-03-22T08:23:08.996Z,9.80
2018-03-22T08:25:36.544Z,7.33
2018-03-22T08:28:04.094Z,7.97
2018-03-22T08:30:31.660Z,10.83
2018-03-22T08:32:59.236Z,6.83
2018-03-22T08:35:26.800Z,8.00
2018-03-22T08:37:54.402Z,5.47
2018-03-22T08:40:21.958Z,5.40
2018-03-22T08:42:50.279Z,6.17
2018-03-22T08:45:17.846Z,5.57
2018-03-22T08:47:45.419Z,6.20
2018-03-22T08:50:12.979Z,9.60
2018-03-22T08:52:40.608Z,6.20
2018-03-22T08:55:08.150Z,7.27
2018-03-22T08:57:35.704Z,9.03
2018-03-22T09:00:03.366Z,7.37
2018-03-22T09:02:30.940Z,7.17
2018-03-22T09:04:58.498Z,8.10
2018-03-22T09:07:26.061Z,9.27
2018-03-22T09:09:53.638Z,7.13
2018-03-22T09:12:21.207Z,5.77
2018-03-22T09:14:48.786Z,6.00
2018-03-22T09:17:16.323Z,5.97
2018-03-22T09:19:44.642Z,7.87
2018-03-22T09:22:12.224Z,6.07
2018-03-22T09:24:39.799Z,5.60
2018-03-22T09:27:07.361Z,10.73
2018-03-22T09:29:34.951Z,10.57
2018-03-22T09:32:03.280Z,6.33
2018-03-22T09:34:31.660Z,8.30
2018-03-22T09:37:02.670Z,6.97
2018-03-22T09:39:30.235Z,8.67
2018-03-22T09:41:57.798Z,8.80
2018-03-22T09:44:25.396Z,7.70
2018-03-22T09:46:52.944Z,11.07
2018-03-22T09:49:21.277Z,10.50
2018-03-22T09:51:48.845Z,8.33
2018-03-22T09:54:16.403Z,6.83
2018-03-22T09:56:43.983Z,8.40
2018-03-22T09:59:12.337Z,9.57
2018-03-22T10:01:39.919Z,8.77
2018-03-22T10:04:07.473Z,8.50
2018-03-22T10:06:35.059Z,13.57
2018-03-22T10:09:03.415Z,15.43
2018-03-22T10:11:30.966Z,15.83
2018-03-22T10:13:58.550Z,15.60
2018-03-22T10:16:26.888Z,17.97
2018-03-22T10:18:54.458Z,15.03
2018-03-22T10:21:22.055Z,19.60
2018-03-22T10:23:50.412Z,16.67
2018-03-22T10:26:17.990Z,15.37
2018-03-22T10:28:46.366Z,18.77
2018-03-22T10:31:14.703Z,19.30
2018-03-22T10:33:42.267Z,22.30
2018-03-22T10:36:09.863Z,21.30
2018-03-22T10:38:37.442Z,20.53
2018-03-22T10:41:05.775Z,22.87
2018-03-22T10:43:33.376Z,26.50
2018-03-22T10:46:01.738Z,25.97
2018-03-22T10:48:30.090Z,27.63
2018-03-22T10:50:57.698Z,27.50
2018-03-22T10:53:26.014Z,27.50
2018-03-22T10:55:53.586Z,26.53
2018-03-22T10:58:21.167Z,25.83
2018-03-22T11:00:54.342Z,24.33
2018-03-22T11:03:27.205Z,30.20
2018-03-22T11:05:54.792Z,24.60
2018-03-22T11:08:22.345Z,28.37
2018-03-22T11:10:49.987Z,26.97
2018-03-22T11:13:17.542Z,28.60
2018-03-22T11:15:45.103Z,31.70
2018-03-22T11:18:12.686Z,30.50
2018-03-22T11:20:40.254Z,24.80
2018-03-22T11:23:07.819Z,21.45
2018-03-22T11:25:35.412Z,24.30
2018-03-22T11:28:03.739Z,28.43
2018-03-22T11:30:31.317Z,26.13
2018-03-22T11:32:58.919Z,30.93
2018-03-22T11:35:27.234Z,25.17
2018-03-22T11:37:54.864Z,25.23
2018-03-22T11:40:23.208Z,31.20
2018-03-22T11:42:50.800Z,24.70
2018-03-22T11:45:18.341Z,25.40
2018-03-22T11:47:46.700Z,25.80
2018-03-22T11:50:14.276Z,29.80
2018-03-22T11:52:41.828Z,23.27
2018-03-22T11:55:09.422Z,28.20
2018-03-22T11:57:37.746Z,26.40
2018-03-22T12:00:05.314Z,27.50
2018-03-22T12:02:32.904Z,32.63
2018-03-22T12:05:00.466Z,30.70
2018-03-22T12:07:28.383Z,32.13
2018-03-22T12:09:55.960Z,27.97
2018-03-22T12:12:23.529Z,31.80
2018-03-22T12:14:51.088Z,34.83
2018-03-22T12:17:18.663Z,29.23
2018-03-22T12:19:46.224Z,34.70
2018-03-22T12:22:13.789Z,29.80
2018-03-22T12:24:42.175Z,31.10
2018-03-22T12:27:10.495Z,34.33
2018-03-22T12:29:40.009Z,31.33
2018-03-22T12:32:09.525Z,32.37
2018-03-22T12:34:37.080Z,31.00
2018-03-22T12:37:05.555Z,32.13
2018-03-22T12:39:33.151Z,28.73
2018-03-22T12:42:00.709Z,28.60
2018-03-22T12:44:28.267Z,28.33
2018-03-22T12:46:55.872Z,33.20
2018-03-22T12:49:23.439Z,27.77
2018-03-22T12:51:50.995Z,29.90
2018-03-22T12:54:18.575Z,30.07
2018-03-22T12:56:46.148Z,31.10
2018-03-22T12:59:13.721Z,33.60
2018-03-22T13:01:41.318Z,27.40
2018-03-22T13:04:08.894Z,31.85
2018-03-22T13:06:36.486Z,29.43
2018-03-22T13:09:04.090Z,32.60
2018-03-22T13:11:31.659Z,30.20
2018-03-22T13:13:59.988Z,31.23
2018-03-22T13:16:27.590Z,28.10
2018-03-22T13:18:55.920Z,26.83
2018-03-22T13:21:23.479Z,34.90
2018-03-22T13:23:51.078Z,30.57
2018-03-22T13:26:18.640Z,28.37
2018-03-22T13:29:09.486Z,31.05
2018-03-22T13:31:37.790Z,34.63
2018-03-22T13:34:05.379Z,29.70
2018-03-22T13:36:38.863Z,31.90
2018-03-22T13:39:06.449Z,25.73
2018-03-22T13:41:33.994Z,29.37
2018-03-22T13:44:01.560Z,29.57
2018-03-22T13:46:29.152Z,29.10
2018-03-22T13:49:05.351Z,29.63
2018-03-22T13:51:32.947Z,27.10
2018-03-22T13:54:00.502Z,27.90
2018-03-22T13:56:28.050Z,24.73
2018-03-22T13:58:55.637Z,27.10
2018-03-22T14:01:25.208Z,25.57
2018-03-22T14:03:52.781Z,22.40
2018-03-22T14:06:20.370Z,26.17
2018-03-22T14:08:47.929Z,22.63
2018-03-22T14:11:16.255Z,24.00
2018-03-22T14:13:43.886Z,27.10
2018-03-22T14:16:12.351Z,25.60
2018-03-22T14:18:40.701Z,25.47
2018-03-22T14:21:08.316Z,24.73
2018-03-22T14:23:35.874Z,26.43
2018-03-22T14:26:03.442Z,26.63
2018-03-22T14:28:43.110Z,24.37
2018-03-22T14:31:10.674Z,24.00
2018-03-22T14:33:38.224Z,28.53
2018-03-22T14:36:05.816Z,25.93
2018-03-22T14:38:33.388Z,28.67
2018-03-22T14:43:56.027Z,32.10
2018-03-22T14:46:23.608Z,27.20
2018-03-22T14:48:51.181Z,29.43
2018-03-22T14:51:18.734Z,29.43
2018-03-22T14:53:46.320Z,31.33
2018-03-22T14:56:13.907Z,32.00
2018-03-22T14:58:41.474Z,29.73
2018-03-22T15:01:09.186Z,29.47
2018-03-22T15:03:36.746Z,30.33
2018-03-22T15:06:04.330Z,32.60
2018-03-22T15:08:32.686Z,31.20
2018-03-22T15:11:00.235Z,31.60
2018-03-22T15:13:27.805Z,30.93
2018-03-22T15:15:55.395Z,26.90
2018-03-22T15:18:22.946Z,31.23
2018-03-22T15:20:51.275Z,31.90
2018-03-22T15:23:18.866Z,26.17
2018-03-22T15:25:46.417Z,29.93
2018-03-22T15:28:13.985Z,26.33
2018-03-22T15:30:41.563Z,31.40
2018-03-22T15:33:09.887Z,26.00
2018-03-22T15:35:37.447Z,26.80
2018-03-22T15:38:08.680Z,26.90
2018-03-22T15:40:36.238Z,27.87
2018-03-22T15:43:03.805Z,30.70
2018-03-22T15:45:31.394Z,29.03
2018-03-22T15:48:11.690Z,25.70
2018-03-22T15:50:40.056Z,25.87
2018-03-22T15:53:10.135Z,28.70
2018-03-22T15:55:41.267Z,25.20
2018-03-22T15:58:08.827Z,29.40
2018-03-22T16:00:36.386Z,27.13
2018-03-22T16:03:03.985Z,24.90
2018-03-22T16:05:31.542Z,29.10
2018-03-22T16:07:59.108Z,29.47
2018-03-22T16:10:26.694Z,29.70
2018-03-22T16:12:55.019Z,23.83
2018-03-22T16:15:22.571Z,22.47
2018-03-22T16:17:50.155Z,23.97
2018-03-22T16:20:17.735Z,23.97
2018-03-22T16:22:45.300Z,24.30
2018-03-22T16:25:13.648Z,25.30
2018-03-22T16:27:41.206Z,28.20
2018-03-22T16:30:08.775Z,23.67
2018-03-22T16:32:36.352Z,24.83
2018-03-22T16:35:03.891Z,26.60
2018-03-22T16:37:32.263Z,23.97
2018-03-22T16:39:59.848Z,25.80
2018-03-22T16:42:27.450Z,26.53
2018-03-22T16:44:55.785Z,29.30
2018-03-22T16:47:23.372Z,28.40
2018-03-22T16:49:51.691Z,29.33
2018-03-22T16:52:19.250Z,26.97
2018-03-22T16:54:46.826Z,31.33
2018-03-22T16:57:14.374Z,28.57
2018-03-22T16:59:41.922Z,28.47
2018-03-22T17:02:09.507Z,31.60
2018-03-22T17:04:47.852Z,34.53
2018-03-22T17:07:16.368Z,30.47
2018-03-22T17:09:43.928Z,34.80
2018-03-22T17:12:11.529Z,29.60
2018-03-22T17:14:39.115Z,29.27
2018-03-22T17:17:07.452Z,31.57
2018-03-22T17:19:41.395Z,30.03
2018-03-22T17:22:08.995Z,30.43
2018-03-22T17:24:36.601Z,31.83
2018-03-22T17:27:04.248Z,31.43
2018-03-22T17:29:31.843Z,30.92
2018-03-22T17:31:59.403Z,35.40
2018-03-22T17:34:27.013Z,31.00
2018-03-22T17:36:54.607Z,32.97
2018-03-22T17:39:27.977Z,27.47
2018-03-22T17:41:55.538Z,30.23
2018-03-22T17:44:23.096Z,29.90
2018-03-22T17:46:50.672Z,34.30
2018-03-22T17:49:18.226Z,34.90
2018-03-22T17:51:45.795Z,35.80
2018-03-22T17:54:13.376Z,35.73
2018-03-22T17:56:40.941Z,33.17
2018-03-22T17:59:08.513Z,32.97
2018-03-22T18:01:36.863Z,36.20
2018-03-22T18:04:04.423Z,38.13
2018-03-22T18:06:31.976Z,36.13
2018-03-22T18:08:59.552Z,33.00
2018-03-22T18:11:27.123Z,35.30
2018-03-22T18:13:54.687Z,39.40
2018-03-22T18:16:22.283Z,38.93
2018-03-22T18:18:49.837Z,34.90
2018-03-22T18:21:17.401Z,40.30
2018-03-22T18:23:45.087Z,37.63
2018-03-22T18:26:12.647Z,45.07
2018-03-22T18:28:41.852Z,39.30
2018-03-22T18:31:10.203Z,37.03
2018-03-22T18:33:37.775Z,34.80
2018-03-22T18:36:05.375Z,39.23
2018-03-22T18:38:32.925Z,36.30
2018-03-22T18:41:00.481Z,40.77
2018-03-22T18:43:28.028Z,40.03
2018-03-22T18:45:55.609Z,46.37
2018-03-22T18:48:23.163Z,39.10
2018-03-22T18:50:50.734Z,38.20
2018-03-22T18:53:18.313Z,41.80
2018-03-22T18:55:45.864Z,42.67
2018-03-22T18:58:13.422Z,39.80
2018-03-22T19:00:41.008Z,38.33
2018-03-22T19:03:09.329Z,36.77
2018-03-22T19:05:36.879Z,36.60
2018-03-22T19:08:11.761Z,42.57
2018-03-22T19:10:39.312Z,37.40
2018-03-22T19:13:06.877Z,41.67
2018-03-22T19:15:34.471Z,54.27
2018-03-22T19:18:02.802Z,38.20
2018-03-22T19:20:30.343Z,41.73
2018-03-22T19:22:58.952Z,43.20
2018-03-22T19:25:29.739Z,39.57
2018-03-22T19:27:57.305Z,37.43
2018-03-22T19:30:25.769Z,35.93
2018-03-22T19:32:54.078Z,38.03
2018-03-22T19:35:22.555Z,36.90
2018-03-22T19:37:50.135Z,36.53
2018-03-22T19:40:17.685Z,35.20
2018-03-22T19:42:45.231Z,35.70
2018-03-22T19:45:12.833Z,36.23
2018-03-22T19:47:40.399Z,34.10
2018-03-22T19:50:07.948Z,39.13
2018-03-22T19:52:35.519Z,39.33
2018-03-22T19:55:03.065Z,42.97
2018-03-22T19:57:33.799Z,40.23
2018-03-22T20:00:01.375Z,37.60
2018-03-22T20:02:28.999Z,40.30
2018-03-22T20:04:57.266Z,37.67
2018-03-22T20:07:24.859Z,36.43
2018-03-22T20:09:52.501Z,43.33
2018-03-22T20:12:20.052Z,37.70
2018-03-22T20:14:47.681Z,38.23
2018-03-22T20:17:15.271Z,38.00
2018-03-22T20:19:42.832Z,40.63
2018-03-22T20:22:10.411Z,40.40
2018-03-22T20:24:37.968Z,33.10
2018-03-22T20:27:05.536Z,35.40
2018-03-22T20:29:39.700Z,31.67
2018-03-22T20:32:08.030Z,32.97
2018-03-22T20:34:35.604Z,32.40
2018-03-22T20:37:03.202Z,31.67
2018-03-22T20:39:31.520Z,28.80
2018-03-22T20:41:59.068Z,32.10
2018-03-22T20:44:26.697Z,27.73
2018-03-22T20:46:54.221Z,28.30
2018-03-22T20:49:21.809Z,28.57
2018-03-22T20:51:49.382Z,25.20
2018-03-22T20:54:17.705Z,25.53
2018-03-22T20:56:45.260Z,30.87
2018-03-22T20:59:12.853Z,29.40
2018-03-22T21:01:40.401Z,25.47
2018-03-22T21:04:07.973Z,28.07
2018-03-22T21:06:35.566Z,29.10
2018-03-22T21:09:03.897Z,24.47
2018-03-22T21:11:31.461Z,26.60
2018-03-22T21:13:59.044Z,24.30
2018-03-22T21:16:26.586Z,26.37
2018-03-22T21:18:54.142Z,23.67
2018-03-22T21:21:21.727Z,21.63
2018-03-22T21:23:49.283Z,23.27
2018-03-22T21:26:16.828Z,23.00
2018-03-22T21:28:44.401Z,20.17
2018-03-22T21:31:11.964Z,23.00
2018-03-22T21:33:39.528Z,22.67
2018-03-22T21:36:07.135Z,23.20
2018-03-22T21:38:34.723Z,20.23
2018-03-22T21:41:02.307Z,22.47
2018-03-22T21:43:29.892Z,19.43
2018-03-22T21:45:58.207Z,19.70
2018-03-22T21:48:25.776Z,23.07
2018-03-22T21:50:53.364Z,19.70
2018-03-22T21:53:20.911Z,22.50
2018-03-22T21:55:48.489Z,18.97
2018-03-22T21:58:16.075Z,20.27
2018-03-22T22:00:43.650Z,18.93
2018-03-22T22:03:11.225Z,22.07
2018-03-22T22:05:38.818Z,19.23
2018-03-22T22:08:06.372Z,18.67
2018-03-22T22:10:33.914Z,17.67
2018-03-22T22:13:01.494Z,19.30
2018-03-22T22:15:30.147Z,24.33
2018-03-22T22:17:57.690Z,19.77
2018-03-22T22:20:25.264Z,19.70
2018-03-22T22:22:52.817Z,16.40
2018-03-22T22:25:20.372Z,16.50
2018-03-22T22:27:47.949Z,19.73
2018-03-22T22:30:15.500Z,20.40
2018-03-22T22:32:43.085Z,17.80
2018-03-22T22:35:10.665Z,19.80
2018-03-22T22:37:38.210Z,19.13
2018-03-22T22:40:05.758Z,17.17
2018-03-22T22:42:33.347Z,18.23
2018-03-22T22:45:00.911Z,19.00
2018-03-22T22:47:28.472Z,18.10
2018-03-22T22:49:56.063Z,20.33
2018-03-22T22:52:29.630Z,16.90
2018-03-22T22:54:57.215Z,18.80
2018-03-22T22:57:25.572Z,17.47
2018-03-22T22:59:53.141Z,18.57
2018-03-22T23:02:20.715Z,21.33
2018-03-22T23:04:49.056Z,18.53
2018-03-22T23:07:16.628Z,18.20
2018-03-22T23:09:44.210Z,18.10
2018-03-22T23:12:12.540Z,18.30
2018-03-22T23:14:40.086Z,19.57
2018-03-22T23:17:07.665Z,18.53
2018-03-22T23:19:35.217Z,17.47
2018-03-22T23:22:02.770Z,17.43
2018-03-22T23:24:30.355Z,18.77
2018-03-22T23:26:57.922Z,17.93
2018-03-22T23:29:38.283Z,19.63
2018-03-22T23:32:05.839Z,19.33
2018-03-22T23:34:33.411Z,21.73
2018-03-22T23:37:00.996Z,19.90
2018-03-22T23:39:29.318Z,19.80
2018-03-22T23:41:56.867Z,20.50
2018-03-22T23:44:24.453Z,22.80
2018-03-22T23:46:52.026Z,19.53
2018-03-22T23:49:19.599Z,26.30
2018-03-22T23:51:47.201Z,25.13
2018-03-22T23:54:14.758Z,22.40
2018-03-22T23:56:42.315Z,24.00
2018-03-22T23:59:09.894Z,21.90
